Terminal Aerodrome Forecast
Issued by NWS

Home | Current Version | Previous Version | Text Only | Print | Product List | Glossary On
Versions: 1 2 3 4 5 6 7 8 9 10 11 12 13
000
FTUS41 KBTV 190535
TAFMSS
TAF
KMSS 190535Z 1906/2006 21005KT P6SM SKC WS020/22035KT
     FM191200 21011KT P6SM SKC
     FM191400 21014G22KT P6SM FEW100
     FM191700 23022G35KT P6SM FEW050 SCT200
     FM200100 25014KT P6SM FEW100=

USA.gov is the U.S. government's official web portal to all federal, state and local government web resources and services.